Metar z pełnej godziny Komunikat METAR ze strony awiacja.imgw.pl Metar G00 EPMO METAR EPMO 231300Z 17006KT 120V220 CAVOK 21/05 Q1011 =